Enter the Airport ICAO Code

Search by Airport or City

Current Weather

LEBL | Barcelona–El Prat Airport

Barcelona, Catalonia, Spain

Last Update 32 Minutes Ago

Sky with Few Clouds

Temperature of 24 ºC

Light to Moderate Winds from South

Temperature

24 ºC

Dew Point Temperature

22 ºC

Relative Humidity

88.67 %

Wind Direction

South (190º, Ranging from 150º to 210º)

Wind Velocity

17 km/h (09 kt)

Gusts

None

Visibility

Greater than 10 Kilometers

Sea Level Pressure

1014 hPa (Hectopascals)

Layers of Clouds

5% to 30% of Sky Covered from 305 mts (1000 ft) Above Ground Level.

METAR LEBL 191230Z 19009KT 150V210 9999 FEW010 24/22 Q1014 NOSIG

Weather Forecast

LEBL | Barcelona–El Prat Airport

Barcelona, Catalonia, Spain

Forecast valid for the next 23 Hours

From now on it is expected:

Sky with Few Clouds

Light to Moderate Winds from South

In 6 to 8 hours it is expected the begining of:

Light to Moderate Winds from North

In 11 to 13 hours it is expected the begining of:

Light Winds from Variable Directions

Maximum Temperature

28 ºC in -1 Hours

Minimum Temperature

22 ºC in 17 Hours

TAF LEBL 191130Z 1912/2012 18009KT 9999 FEW020 TX28/1912Z TN22/2006Z BECMG 1919/1921 35008KT BECMG 2000/2002 VRB04KT